Time;durP1;ratioP1;P1;durP2;ratioP2;P2;SDS_P1;SDS_P2;PMS_P1;PMS_P2;Temp;Humidity;BMP_temperature;BMP_pressure;BME280_temperature;BME280_humidity;BME280_pressure;Samples;Min_cycle;Max_cycle;Signal;HPM_P1;HPM_P2
2021/12/29 00:01:58;;;;;;;25.42;20.42;;;;;;;28.75;61.52;101217.78;5013961;28;69845;-40
2021/12/29 00:04:28;;;;;;;27.73;20.75;;;;;;;28.78;61.58;101206.59;5012887;28;65813;-40
2021/12/29 00:06:59;;;;;;;29.15;20.48;;;;;;;28.86;62.39;101219.09;5015816;28;70453;-40
2021/12/29 00:09:33;;;;;;;29.15;20.27;;;;;;;28.89;62.26;101230.34;5015085;28;67616;-40
2021/12/29 00:12:04;;;;;;;38.60;20.65;;;;;;;28.91;62.59;101228.25;5031409;28;70252;-40
2021/12/29 00:14:35;;;;;;;32.55;22.92;;;;;;;28.94;63.08;101227.88;5015981;28;65412;-43
2021/12/29 00:17:06;;;;;;;44.38;22.75;;;;;;;28.94;64.32;101237.84;5017742;28;68977;-42
2021/12/29 00:19:36;;;;;;;34.92;22.85;;;;;;;28.93;63.80;101237.00;5017740;28;65943;-42
2021/12/29 00:22:07;;;;;;;37.28;23.73;;;;;;;28.93;64.43;101237.00;5013723;28;69367;-42
2021/12/29 00:24:37;;;;;;;29.65;22.23;;;;;;;28.95;64.38;101239.53;5017228;28;65621;-43
2021/12/29 00:27:10;;;;;;;38.50;23.85;;;;;;;28.95;64.63;101240.34;5019706;28;69806;-41
2021/12/29 00:29:40;;;;;;;38.25;26.15;;;;;;;28.96;64.31;101250.09;5014389;28;64573;-42
2021/12/29 00:32:29;;;;;;;41.20;27.10;;;;;;;28.92;64.96;101250.72;5018422;28;69333;-43
2021/12/29 00:35:18;;;;;;;32.38;24.13;;;;;;;28.87;65.31;101248.59;5014763;28;66188;-43
2021/12/29 00:38:10;;;;;;;37.00;25.52;;;;;;;28.93;65.62;101258.63;5018715;28;69317;-42
2021/12/29 00:40:59;;;;;;;39.60;24.23;;;;;;;28.91;66.34;101249.88;5020247;28;66632;-43
2021/12/29 00:44:08;;;;;;;29.45;21.83;;;;;;;29.00;66.20;101274.00;5018138;28;69429;-41
2021/12/29 00:46:42;;;;;;;28.58;21.92;;;;;;;29.03;65.65;101269.09;5014563;28;65558;-41
2021/12/29 00:49:12;;;;;;;24.90;19.48;;;;;;;29.06;66.05;101265.16;5014114;28;70337;-41
2021/12/29 00:51:43;;;;;;;27.27;19.98;;;;;;;29.12;65.29;101275.19;5019609;28;64935;-41
2021/12/29 00:54:14;;;;;;;20.73;18.35;;;;;;;29.15;65.55;101281.00;5016190;28;70464;-41
2021/12/29 00:56:44;;;;;;;24.45;19.13;;;;;;;29.15;64.99;101278.31;4999087;28;65088;-41
2021/12/29 00:59:15;;;;;;;21.23;18.35;;;;;;;29.22;65.12;101289.13;5013259;28;71709;-41
2021/12/29 01:01:48;;;;;;;22.42;20.05;;;;;;;29.27;65.19;101292.09;5017901;28;66146;-43
2021/12/29 01:04:20;;;;;;;27.30;18.17;;;;;;;29.15;64.96;101277.47;5030704;28;70085;-41
2021/12/29 01:06:52;;;;;;;29.83;20.10;;;;;;;29.29;64.77;101305.41;5017998;28;65432;-42
2021/12/29 01:09:22;;;;;;;24.85;20.58;;;;;;;29.32;64.65;101311.25;5013897;28;69723;-41
2021/12/29 01:11:57;;;;;;;19.52;17.42;;;;;;;29.38;64.63;101320.41;5014712;28;66188;-41
2021/12/29 01:14:30;;;;;;;21.67;19.33;;;;;;;29.40;64.16;101329.16;5012046;28;70233;-42
2021/12/29 01:17:01;;;;;;;24.38;18.13;;;;;;;29.43;63.79;101322.53;5016461;28;66179;-42
2021/12/29 01:19:31;;;;;;;19.95;17.83;;;;;;;29.45;63.83;101325.84;5016529;28;69197;-41
2021/12/29 01:22:03;;;;;;;22.83;17.63;;;;;;;29.48;63.75;101330.88;5016841;28;65977;-42
2021/12/29 01:24:33;;;;;;;18.63;16.73;;;;;;;29.48;63.81;101347.91;5013963;28;69698;-42
2021/12/29 01:27:04;;;;;;;19.02;17.17;;;;;;;29.50;63.78;101331.50;5005455;28;65500;-43
2021/12/29 01:29:34;;;;;;;21.98;17.48;;;;;;;29.51;63.78;101342.13;5016423;28;71085;-41
2021/12/29 01:32:05;;;;;;;18.55;16.67;;;;;;;29.54;63.79;101352.53;5013850;28;65592;-41
2021/12/29 01:34:35;;;;;;;18.50;16.60;;;;;;;29.52;63.47;101332.13;5015955;28;69986;-42
2021/12/29 01:37:06;;;;;;;17.05;15.40;;;;;;;29.57;63.24;101341.31;5007099;28;66174;-42
2021/12/29 01:39:36;;;;;;;18.27;16.40;;;;;;;29.59;63.62;101344.66;5015349;28;69955;-41
2021/12/29 01:42:07;;;;;;;17.75;15.95;;;;;;;29.61;63.24;101341.72;5031650;28;65676;-40
2021/12/29 01:44:38;;;;;;;17.63;15.85;;;;;;;29.62;63.36;101338.00;5017395;28;70302;-41
2021/12/29 01:47:09;;;;;;;16.25;14.77;;;;;;;29.63;63.57;101339.69;5011375;28;66300;-42
2021/12/29 01:49:41;;;;;;;16.38;14.60;;;;;;;29.67;63.16;101345.53;5014721;28;69937;-41
2021/12/29 01:52:13;;;;;;;16.80;15.32;;;;;;;29.69;63.10;101340.75;5014529;28;66725;-41
2021/12/29 01:54:44;;;;;;;17.95;14.88;;;;;;;29.70;62.68;101335.16;5017609;28;70551;-42
2021/12/29 01:57:14;;;;;;;16.30;14.68;;;;;;;29.70;62.56;101332.47;5016695;28;66116;-42
2021/12/29 01:59:46;;;;;;;15.63;14.18;;;;;;;29.74;62.90;101336.41;5013048;28;69553;-42
2021/12/29 02:02:16;;;;;;;16.35;14.65;;;;;;;29.76;62.41;101338.94;5014642;28;66077;-42
2021/12/29 02:04:48;;;;;;;15.48;13.88;;;;;;;29.75;62.85;101335.38;4998640;28;69892;-42
2021/12/29 02:07:19;;;;;;;14.77;13.38;;;;;;;29.78;62.44;101340.41;5013156;28;65847;-42
2021/12/29 02:09:50;;;;;;;13.55;12.35;;;;;;;29.82;62.67;101332.72;5013485;28;70485;-42
2021/12/29 02:12:20;;;;;;;13.20;12.13;;;;;;;29.79;62.52;101328.53;5013336;28;65288;-43
2021/12/29 02:14:51;;;;;;;15.95;12.55;;;;;;;29.81;62.04;101323.78;5010198;28;69689;-43
2021/12/29 02:17:21;;;;;;;14.05;12.45;;;;;;;29.89;61.96;101333.56;5013852;28;66566;-42
2021/12/29 02:19:52;;;;;;;14.13;12.82;;;;;;;29.92;62.42;101332.31;5014206;28;70352;-42
2021/12/29 02:22:45;;;;;;;13.60;12.45;;;;;;;29.92;62.35;101332.31;5011748;28;66258;-42
2021/12/29 02:27:52;;;;;;;12.63;11.43;;;;;;;29.93;62.21;101325.88;5013373;28;66035;-42
2021/12/29 02:30:25;;;;;;;12.27;11.27;;;;;;;30.00;61.64;101324.03;5009540;28;69271;-42
2021/12/29 02:33:00;;;;;;;13.60;11.63;;;;;;;29.98;61.65;101318.00;5014505;28;66304;-41
2021/12/29 02:35:31;;;;;;;13.55;12.40;;;;;;;30.01;61.76;101320.28;5011163;28;70547;-44
2021/12/29 02:38:05;;;;;;;13.93;12.18;;;;;;;30.00;61.62;101307.78;4989465;28;66120;-42
2021/12/29 02:40:36;;;;;;;13.63;12.45;;;;;;;30.07;61.42;101324.88;5005927;28;70762;-42
2021/12/29 02:43:07;;;;;;;13.40;12.18;;;;;;;29.98;61.72;101299.06;5011738;28;66375;-41
2021/12/29 02:45:37;;;;;;;12.60;11.50;;;;;;;30.12;61.72;101311.59;5010890;28;70485;-41
2021/12/29 02:48:08;;;;;;;12.73;11.68;;;;;;;30.14;61.32;101309.47;5012796;28;68109;-41
2021/12/29 02:50:38;;;;;;;12.73;11.52;;;;;;;30.16;61.50;101312.81;5012655;28;69919;-42
2021/12/29 02:53:09;;;;;;;11.98;11.05;;;;;;;30.18;61.03;101299.94;5007903;28;66549;-42
2021/12/29 02:55:40;;;;;;;12.80;11.70;;;;;;;30.21;60.91;101304.94;5016609;28;70545;-42
2021/12/29 02:58:10;;;;;;;12.55;11.57;;;;;;;30.21;61.34;101299.53;5014678;28;65605;-41
2021/12/29 03:00:41;;;;;;;12.95;11.73;;;;;;;30.07;61.19;101265.38;5010556;28;70052;-43
2021/12/29 03:03:17;;;;;;;11.68;10.82;;;;;;;30.30;61.21;101296.66;5010871;28;67066;-41
2021/12/29 03:05:48;;;;;;;11.73;10.75;;;;;;;30.28;60.45;101288.72;5011586;28;69319;-43
2021/12/29 03:08:21;;;;;;;12.93;11.80;;;;;;;30.32;60.59;101292.69;5013081;28;65383;-42
2021/12/29 03:10:53;;;;;;;13.13;10.98;;;;;;;30.34;60.40;101289.75;5010715;28;69920;-43
2021/12/29 03:13:28;;;;;;;11.93;10.65;;;;;;;30.24;60.25;101276.66;4994340;28;66092;-41
2021/12/29 03:15:59;;;;;;;11.73;10.73;;;;;;;30.40;60.28;101303.31;5012800;28;70551;-42
2021/12/29 03:18:31;;;;;;;11.77;10.70;;;;;;;30.42;60.42;101287.72;5009346;28;66356;-43
2021/12/29 03:21:02;;;;;;;11.00;10.30;;;;;;;30.45;60.60;101291.84;5015653;28;69153;-43
2021/12/29 03:23:33;;;;;;;11.27;10.48;;;;;;;30.45;60.75;101295.41;5003666;28;65917;-43
2021/12/29 03:26:03;;;;;;;10.55;9.60;;;;;;;30.50;60.38;101292.06;5009237;28;69570;-41
2021/12/29 03:28:35;;;;;;;11.48;10.40;;;;;;;30.51;60.55;101282.94;5002272;28;66012;-41
2021/12/29 03:31:10;;;;;;;10.98;10.10;;;;;;;30.49;60.25;101279.59;4999155;28;68488;-43
2021/12/29 03:33:43;;;;;;;11.90;10.80;;;;;;;30.31;60.42;101245.00;5012353;28;66304;-42
2021/12/29 03:36:14;;;;;;;11.70;10.55;;;;;;;30.60;59.81;101278.97;4994215;28;70327;-41
2021/12/29 03:38:48;;;;;;;10.73;9.80;;;;;;;30.61;59.68;101277.91;5009321;28;65330;-43
2021/12/29 03:41:20;;;;;;;11.25;9.93;;;;;;;30.64;59.55;101285.59;5014407;28;70988;-41
2021/12/29 03:43:51;;;;;;;;;;;;;;;30.37;60.68;101271.25;5006508;28;66688;-41
2021/12/29 03:46:23;;;;;;;10.65;9.82;;;;;;;30.61;60.11;101272.50;5011779;28;70587;-42
2021/12/29 03:48:54;;;;;;;11.55;10.55;;;;;;;30.66;59.54;101261.88;5010602;28;66502;-43
2021/12/29 03:51:24;;;;;;;11.10;10.23;;;;;;;30.68;60.00;101262.50;5013437;28;70487;-44
2021/12/29 03:53:55;;;;;;;11.15;10.45;;;;;;;30.75;59.28;101261.66;5014467;28;65367;-42
2021/12/29 03:56:25;;;;;;;11.70;10.57;;;;;;;30.77;59.46;101257.69;5007896;28;70006;-42
2021/12/29 03:58:56;;;;;;;11.93;10.25;;;;;;;30.73;59.80;101248.34;4998654;28;65151;-43
2021/12/29 04:01:27;;;;;;;12.75;10.40;;;;;;;30.81;59.72;101255.41;5009724;28;69918;-42
2021/12/29 04:03:58;;;;;;;12.93;10.45;;;;;;;30.79;59.51;101249.38;5005998;28;66409;-42
2021/12/29 04:06:29;;;;;;;10.93;9.93;;;;;;;30.85;59.02;101251.25;5012626;28;70273;-42
2021/12/29 04:08:59;;;;;;;11.35;10.55;;;;;;;30.83;59.06;101243.34;5010307;28;65274;-42
2021/12/29 04:11:29;;;;;;;11.88;10.73;;;;;;;30.88;59.02;101240.81;5008514;28;69272;-42
2021/12/29 04:14:00;;;;;;;12.80;10.20;;;;;;;30.92;58.90;101242.09;5008608;28;66643;-42
2021/12/29 04:16:36;;;;;;;12.07;10.70;;;;;;;30.94;59.10;101239.97;4999771;28;69205;-41
2021/12/29 04:19:14;;;;;;;11.20;10.20;;;;;;;30.96;59.07;101231.66;5003891;28;66589;-42
2021/12/29 04:21:47;;;;;;;11.60;9.95;;;;;;;31.00;59.10;101229.34;5015118;28;70293;-41
2021/12/29 04:24:17;;;;;;;10.15;9.27;;;;;;;31.00;59.36;101222.03;4997448;28;66592;-42
2021/12/29 04:26:48;;;;;;;11.18;10.18;;;;;;;31.03;59.05;101221.59;5011996;28;71790;-42
2021/12/29 04:29:18;;;;;;;12.30;9.95;;;;;;;31.04;58.72;101211.63;5016209;28;66219;-40
2021/12/29 04:31:49;;;;;;;10.77;9.88;;;;;;;31.04;58.64;101212.44;5009692;28;69580;-42
2021/12/29 04:34:19;;;;;;;13.00;10.63;;;;;;;31.09;59.18;101209.94;5009404;28;66367;-42
2021/12/29 04:36:50;;;;;;;10.70;9.70;;;;;;;31.05;58.96;101197.84;5014794;28;70523;-42
2021/12/29 04:39:20;;;;;;;11.48;9.75;;;;;;;31.11;58.91;101196.97;5004659;28;66235;-43
2021/12/29 04:41:51;;;;;;;10.38;9.48;;;;;;;31.08;58.68;101181.16;5011228;28;70658;-43
2021/12/29 04:44:22;;;;;;;9.85;9.00;;;;;;;31.16;58.88;101189.03;5003007;28;65376;-42
2021/12/29 04:46:54;;;;;;;11.07;10.25;;;;;;;31.20;58.94;101177.78;5012164;28;70419;-43
2021/12/29 04:49:29;;;;;;;10.40;9.45;;;;;;;31.23;58.49;101174.63;5013288;28;66317;-43
2021/12/29 04:52:03;;;;;;;13.65;9.40;;;;;;;31.25;58.94;101165.25;5008632;28;69889;-43
2021/12/29 04:54:34;;;;;;;10.55;9.65;;;;;;;31.27;58.80;101167.75;5014005;28;66355;-42
2021/12/29 04:57:05;;;;;;;9.75;9.00;;;;;;;31.27;58.63;101156.91;5009568;28;69192;-42
2021/12/29 04:59:36;;;;;;;10.30;9.43;;;;;;;31.22;58.60;101140.47;5010709;28;64160;-42
2021/12/29 05:02:07;;;;;;;9.98;9.15;;;;;;;31.32;58.46;101143.53;5015408;28;70007;-42
2021/12/29 05:04:45;;;;;;;10.05;9.05;;;;;;;31.34;58.60;101146.84;5013568;28;65448;-41
2021/12/29 05:10:04;;;;;;;9.98;9.00;;;;;;;31.38;58.66;101131.84;5016782;28;65165;-42
2021/12/29 05:12:35;;;;;;;9.90;8.90;;;;;;;31.39;58.49;101128.09;5015190;28;70342;-42
2021/12/29 05:15:06;;;;;;;10.00;9.30;;;;;;;31.32;58.31;101111.00;5017655;28;66306;-43
2021/12/29 05:17:36;;;;;;;11.40;9.75;;;;;;;31.40;58.38;101113.50;5005875;28;70030;-43
2021/12/29 05:20:07;;;;;;;9.88;9.07;;;;;;;31.43;58.06;101102.22;5028616;28;65782;-44
2021/12/29 05:22:38;;;;;;;14.03;9.63;;;;;;;31.39;58.29;101095.56;5012166;28;70914;-42
2021/12/29 05:25:08;;;;;;;10.38;9.35;;;;;;;31.45;58.05;101091.13;5015452;28;65461;-45
2021/12/29 05:27:39;;;;;;;10.35;9.48;;;;;;;31.44;58.40;101103.88;5029331;28;72398;-41
2021/12/29 05:30:10;;;;;;;10.30;9.10;;;;;;;31.44;58.50;101093.03;5015612;28;66550;-43
2021/12/29 05:32:41;;;;;;;10.45;9.05;;;;;;;31.47;58.10;101103.44;5015954;28;69193;-42
2021/12/29 05:35:13;;;;;;;10.55;9.48;;;;;;;31.47;58.24;101095.28;5017513;28;65893;-42
2021/12/29 05:37:44;;;;;;;9.65;8.80;;;;;;;31.29;58.16;101058.06;5012635;28;70127;-43
2021/12/29 05:40:15;;;;;;;9.80;9.02;;;;;;;31.50;58.43;101084.00;5030741;28;66123;-42
2021/12/29 05:42:45;;;;;;;10.40;8.40;;;;;;;31.50;58.07;101081.28;5016915;28;68894;-42
2021/12/29 05:45:16;;;;;;;10.15;8.68;;;;;;;31.50;58.02;101075.03;5014683;28;65850;-43
2021/12/29 05:47:48;;;;;;;10.27;9.00;;;;;;;31.47;57.98;101070.88;5015462;28;69233;-43
2021/12/29 05:50:21;;;;;;;8.52;7.88;;;;;;;31.57;57.94;101079.38;5016928;28;66487;-43
2021/12/29 05:52:53;;;;;;;9.57;8.50;;;;;;;31.57;57.85;101063.09;5017619;28;70269;-43
2021/12/29 05:55:24;;;;;;;8.48;7.78;;;;;;;31.57;57.89;101068.53;5014167;28;66718;-44
2021/12/29 05:57:55;;;;;;;8.88;8.23;;;;;;;31.60;58.22;101051.81;5017286;28;69860;-43
2021/12/29 06:00:27;;;;;;;9.93;8.43;;;;;;;31.43;58.07;101020.06;5021546;28;66907;-44
2021/12/29 06:02:57;;;;;;;;;;;;;;;31.39;58.36;101044.06;5026175;28;70221;-43
2021/12/29 06:05:28;;;;;;;7.95;7.45;;;;;;;31.63;58.09;101047.84;5014703;28;66567;-44
2021/12/29 06:07:58;;;;;;;11.52;8.38;;;;;;;31.67;58.21;101040.06;5015750;28;69763;-42
2021/12/29 06:10:30;;;;;;;9.00;8.30;;;;;;;31.69;58.20;101033.38;5012757;28;65319;-42
2021/12/29 06:13:00;;;;;;;8.33;7.73;;;;;;;31.69;57.83;101029.84;5014119;28;70732;-43
2021/12/29 06:15:31;;;;;;;8.48;7.68;;;;;;;31.74;58.00;101027.31;5015402;28;66220;-43
2021/12/29 06:18:02;;;;;;;9.45;8.45;;;;;;;31.74;58.09;101019.16;5017141;28;69425;-43
2021/12/29 06:20:33;;;;;;;8.77;7.97;;;;;;;31.77;58.09;101013.28;5014496;28;65965;-42
2021/12/29 06:23:03;;;;;;;8.18;7.50;;;;;;;31.79;58.13;101005.75;5007044;28;70114;-42
2021/12/29 06:25:34;;;;;;;8.63;7.93;;;;;;;31.80;57.87;100999.28;4995755;28;65623;-42
2021/12/29 06:28:05;;;;;;;7.60;7.03;;;;;;;31.77;57.71;100992.41;5015984;28;70299;-43
2021/12/29 06:30:36;;;;;;;13.75;7.70;;;;;;;31.79;58.10;100979.47;5012800;28;67574;-43
2021/12/29 06:33:06;;;;;;;7.68;7.07;;;;;;;31.86;57.82;100973.97;5016548;28;69402;-42
2021/12/29 06:35:38;;;;;;;8.25;7.65;;;;;;;31.88;57.66;100977.28;5007802;28;66270;-42
2021/12/29 06:38:09;;;;;;;7.50;6.80;;;;;;;31.89;57.53;100976.22;5014916;28;70007;-43
2021/12/29 06:40:39;;;;;;;7.72;6.50;;;;;;;31.92;57.86;100973.09;5009509;28;66361;-43
2021/12/29 06:43:09;;;;;;;8.50;7.60;;;;;;;31.93;57.73;100960.34;5015575;28;69182;-42
2021/12/29 06:45:40;;;;;;;7.60;7.00;;;;;;;31.95;57.72;100964.50;5015908;28;66136;-43
2021/12/29 06:48:10;;;;;;;7.90;7.20;;;;;;;31.96;57.66;100960.75;5015664;28;69552;-43
2021/12/29 06:50:42;;;;;;;7.70;6.90;;;;;;;31.96;57.71;100955.31;5005587;28;66208;-43
2021/12/29 06:53:13;;;;;;;7.45;6.60;;;;;;;32.01;57.90;100960.91;5011575;28;70731;-42
2021/12/29 06:55:43;;;;;;;8.18;7.47;;;;;;;32.04;57.97;100946.06;5012292;28;66019;-43
2021/12/29 06:58:14;;;;;;;9.32;6.43;;;;;;;31.95;57.43;100937.34;5016274;28;70093;-43
2021/12/29 07:00:44;;;;;;;7.25;6.65;;;;;;;32.04;57.53;100946.88;5016090;28;66518;-42
2021/12/29 07:03:15;;;;;;;7.60;6.97;;;;;;;32.11;57.24;100944.06;5020162;28;70554;-43
2021/12/29 07:05:45;;;;;;;7.55;6.15;;;;;;;32.14;57.75;100940.06;5019414;28;66229;-43
2021/12/29 07:08:17;;;;;;;7.05;6.13;;;;;;;32.15;57.55;100939.00;5015441;28;70301;-42
2021/12/29 07:10:48;;;;;;;7.25;6.72;;;;;;;32.18;57.10;100928.56;5003034;28;66047;-42
2021/12/29 07:13:18;;;;;;;6.97;6.38;;;;;;;32.19;57.36;100926.66;5014825;28;71515;-41
2021/12/29 07:15:49;;;;;;;7.28;6.63;;;;;;;32.22;57.23;100932.44;5006681;28;66284;-42
2021/12/29 07:18:19;;;;;;;6.38;5.90;;;;;;;32.26;57.23;100928.25;5017315;28;69989;-42
2021/12/29 07:20:50;;;;;;;6.88;6.18;;;;;;;32.30;57.12;100931.31;5014520;28;65274;-43
2021/12/29 07:23:20;;;;;;;7.00;6.60;;;;;;;32.31;57.15;100924.81;5008995;28;68810;-42
2021/12/29 07:25:51;;;;;;;6.93;6.43;;;;;;;32.31;57.43;100919.38;5015647;28;66209;-43
2021/12/29 07:28:21;;;;;;;6.35;5.88;;;;;;;32.37;57.34;100920.34;5013830;28;70407;-42
2021/12/29 07:30:52;;;;;;;6.50;5.75;;;;;;;32.40;56.85;100911.75;5016806;28;66742;-43
2021/12/29 07:33:23;;;;;;;6.22;5.60;;;;;;;32.42;56.92;100907.75;5029177;28;70546;-41
2021/12/29 07:35:53;;;;;;;6.20;5.80;;;;;;;32.45;57.03;100920.03;5013647;28;65825;-42
2021/12/29 07:38:23;;;;;;;6.03;5.55;;;;;;;32.47;56.62;100907.91;5010550;28;70250;-42
2021/12/29 07:40:54;;;;;;;6.47;5.97;;;;;;;32.49;57.07;100908.53;5013253;28;66747;-42
2021/12/29 07:43:24;;;;;;;6.47;5.43;;;;;;;32.53;56.86;100911.59;5007396;28;69875;-42
2021/12/29 07:45:55;;;;;;;6.28;5.78;;;;;;;32.58;56.81;100910.91;5014255;28;66358;-43
2021/12/29 07:48:28;;;;;;;5.93;5.25;;;;;;;32.61;56.42;100902.31;5014357;28;70424;-41
2021/12/29 07:51:00;;;;;;;7.80;5.85;;;;;;;32.55;56.69;100893.19;5013658;28;65420;-42
2021/12/29 07:53:31;;;;;;;5.50;5.10;;;;;;;32.67;56.81;100895.94;5013116;28;69848;-43
2021/12/29 07:56:01;;;;;;;10.48;5.63;;;;;;;32.70;56.55;100906.34;5014291;28;66220;-44
2021/12/29 07:58:34;;;;;;;5.65;5.15;;;;;;;32.73;56.33;100897.72;5012938;28;70390;-43
2021/12/29 08:01:04;;;;;;;;;;;;;;;32.53;57.00;100895.31;5014746;28;66230;-44
2021/12/29 08:03:34;;;;;;;5.72;5.18;;;;;;;32.76;56.37;100893.72;5014282;28;70272;-41
2021/12/29 08:06:05;;;;;;;5.63;5.22;;;;;;;32.63;56.28;100868.44;5014329;28;66484;-42
2021/12/29 08:08:35;;;;;;;5.75;5.25;;;;;;;32.84;56.32;100896.09;5014439;28;70360;-42
2021/12/29 08:11:05;;;;;;;5.47;5.03;;;;;;;32.88;56.08;100902.72;5012653;28;66572;-42
2021/12/29 08:13:36;;;;;;;6.88;5.18;;;;;;;32.90;56.18;100901.44;5014151;28;70550;-42
2021/12/29 08:16:07;;;;;;;4.45;4.15;;;;;;;32.92;56.20;100899.28;5015386;28;66425;-42
2021/12/29 08:18:37;;;;;;;5.15;4.75;;;;;;;32.97;56.08;100901.31;5012834;28;69893;-42
2021/12/29 08:21:08;;;;;;;5.68;5.18;;;;;;;32.99;55.83;100901.06;5016139;28;66182;-42
2021/12/29 08:23:38;;;;;;;5.90;4.72;;;;;;;33.03;55.97;100902.31;5012811;28;69300;-42
2021/12/29 08:26:09;;;;;;;5.07;4.60;;;;;;;33.07;56.07;100900.75;5014583;28;66845;-42
2021/12/29 08:28:39;;;;;;;5.72;5.22;;;;;;;33.09;56.00;100896.75;5010812;28;70409;-42
2021/12/29 08:31:13;;;;;;;5.18;4.78;;;;;;;33.13;55.88;100899.84;5013941;28;66209;-42
2021/12/29 08:33:44;;;;;;;6.65;5.10;;;;;;;33.17;55.42;100901.00;5005532;28;69193;-43
2021/12/29 08:36:14;;;;;;;4.75;4.35;;;;;;;33.21;55.80;100904.06;5004858;28;65538;-42
2021/12/29 08:38:44;;;;;;;4.45;4.15;;;;;;;33.11;55.58;100880.22;5012681;28;70644;-42
2021/12/29 08:41:16;;;;;;;5.28;4.50;;;;;;;33.25;55.38;100902.56;5014342;28;67205;-43
2021/12/29 08:43:47;;;;;;;5.00;4.60;;;;;;;33.26;55.41;100893.31;5014900;28;70788;-42
2021/12/29 08:46:19;;;;;;;5.70;3.95;;;;;;;33.24;55.64;100885.44;5012114;28;66109;-42
2021/12/29 08:48:49;;;;;;;4.95;4.55;;;;;;;33.31;55.38;100896.16;5011752;28;70255;-42
2021/12/29 08:51:19;;;;;;;4.97;4.35;;;;;;;33.36;55.39;100891.69;5012444;28;66131;-43
2021/12/29 08:53:50;;;;;;;5.40;4.90;;;;;;;33.40;55.24;100893.91;5017930;28;70201;-43
2021/12/29 08:56:20;;;;;;;4.57;4.28;;;;;;;33.41;55.33;100892.88;5008768;28;66646;-42
2021/12/29 08:58:53;;;;;;;4.47;4.07;;;;;;;33.41;55.35;100901.03;5013463;28;70575;-43
2021/12/29 09:01:24;;;;;;;5.03;4.60;;;;;;;33.44;55.25;100906.00;5010437;28;66256;-43
2021/12/29 09:03:54;;;;;;;;;;;;;;;33.23;55.23;100900.06;5016906;28;70129;-43
2021/12/29 09:06:25;;;;;;;4.55;4.20;;;;;;;33.43;55.27;100907.03;5012313;28;66951;-43
2021/12/29 09:08:56;;;;;;;4.10;3.80;;;;;;;33.45;55.08;100902.19;5015430;28;69994;-43
2021/12/29 09:11:29;;;;;;;4.07;3.78;;;;;;;33.26;55.07;100874.31;5016523;28;66036;-43
2021/12/29 09:14:00;;;;;;;4.65;4.25;;;;;;;33.50;55.14;100910.47;5018922;28;70234;-43
2021/12/29 09:16:30;;;;;;;5.40;3.88;;;;;;;33.47;54.83;100906.34;5004945;28;67014;-43
2021/12/29 09:19:01;;;;;;;5.65;4.00;;;;;;;33.47;55.15;100910.94;5012610;28;70289;-44
2021/12/29 09:21:33;;;;;;;4.10;3.78;;;;;;;33.47;55.64;100902.78;5023819;28;66457;-42
2021/12/29 09:24:04;;;;;;;4.07;3.78;;;;;;;33.52;54.91;100913.78;5013514;28;69859;-43
2021/12/29 09:26:34;;;;;;;3.58;3.35;;;;;;;33.51;54.84;100914.84;5008581;28;66455;-43
2021/12/29 09:29:06;;;;;;;4.30;4.00;;;;;;;33.57;54.95;100922.06;5015462;28;69963;-43
2021/12/29 09:31:37;;;;;;;4.07;3.78;;;;;;;33.55;54.80;100924.22;5015351;28;66396;-43
2021/12/29 09:34:07;;;;;;;3.80;3.60;;;;;;;33.53;54.67;100918.19;5009805;28;70075;-44
2021/12/29 09:36:38;;;;;;;3.85;3.53;;;;;;;33.55;54.88;100925.03;5017096;28;65535;-43
2021/12/29 09:39:08;;;;;;;5.38;4.13;;;;;;;33.59;54.82;100936.28;5017674;28;70043;-42
2021/12/29 09:41:38;;;;;;;4.10;3.78;;;;;;;33.54;54.85;100922.53;5017733;28;65657;-42
2021/12/29 09:44:10;;;;;;;4.38;4.05;;;;;;;33.52;54.81;100927.38;5017584;28;70404;-43
2021/12/29 09:46:41;;;;;;;3.83;3.63;;;;;;;33.60;54.89;100937.94;5017831;28;65867;-42
2021/12/29 09:49:16;;;;;;;3.13;2.92;;;;;;;33.47;54.68;100913.66;5018045;28;70051;-42
2021/12/29 09:51:49;;;;;;;4.10;3.60;;;;;;;33.33;54.70;100894.88;5015760;28;66716;-43
2021/12/29 09:54:20;;;;;;;4.07;3.78;;;;;;;33.59;54.78;100941.72;5011216;28;70234;-43
2021/12/29 09:56:51;;;;;;;3.80;3.60;;;;;;;33.53;54.71;100937.22;5015749;28;66379;-44
2021/12/29 09:59:22;;;;;;;3.65;3.35;;;;;;;33.51;55.11;100934.69;5012925;28;70285;-43
2021/12/29 10:01:53;;;;;;;11.38;3.58;;;;;;;33.58;54.94;100946.31;5010470;28;66159;-42
2021/12/29 10:04:46;;;;;;;3.90;3.67;;;;;;;33.55;55.08;100954.97;5014216;28;71083;-43
2021/12/29 10:07:35;;;;;;;3.78;3.47;;;;;;;33.57;54.80;100954.72;5016917;28;67242;-43
2021/12/29 10:10:24;;;;;;;4.07;3.78;;;;;;;33.57;55.12;100958.28;5014018;28;71485;-43
2021/12/29 10:12:56;;;;;;;3.80;3.38;;;;;;;33.54;54.62;100952.47;5017093;28;66433;-43
2021/12/29 10:15:32;;;;;;;3.50;3.25;;;;;;;33.59;54.94;100963.47;5016566;28;70192;-43
2021/12/29 10:18:07;;;;;;;3.22;3.03;;;;;;;33.53;54.71;100950.81;5018013;28;66169;-44
2021/12/29 10:20:49;;;;;;;5.40;3.40;;;;;;;33.30;54.93;100921.72;5014281;28;70265;-45
2021/12/29 10:23:32;;;;;;;3.60;3.30;;;;;;;33.53;54.88;100972.56;5014981;28;65252;-43
2021/12/29 10:26:07;;;;;;;5.00;3.50;;;;;;;33.07;54.64;100892.59;5016421;28;70137;-43
2021/12/29 10:28:41;;;;;;;4.15;3.45;;;;;;;33.52;54.96;100974.47;5016218;28;66252;-43
2021/12/29 10:31:15;;;;;;;3.80;3.50;;;;;;;33.51;54.89;100977.38;5016779;28;70112;-43
2021/12/29 10:33:52;;;;;;;3.92;3.53;;;;;;;33.37;54.89;100958.56;5008427;28;65611;-43
2021/12/29 10:36:24;;;;;;;4.47;4.05;;;;;;;33.50;54.99;100983.91;5007429;28;70046;-42
2021/12/29 10:39:14;;;;;;;3.40;3.20;;;;;;;33.18;55.18;100946.16;5013544;28;67497;-43
2021/12/29 10:41:51;;;;;;;5.90;3.90;;;;;;;33.22;54.98;100951.97;5014449;28;69954;-43
2021/12/29 10:44:32;;;;;;;4.30;3.75;;;;;;;33.19;54.95;100953.25;5015816;28;66721;-45
2021/12/29 10:47:20;;;;;;;5.88;3.70;;;;;;;33.16;55.15;100964.59;5015256;28;70754;-43
2021/12/29 10:49:58;;;;;;;14.05;6.85;;;;;;;33.35;53.21;101006.13;5010653;28;65602;-44
2021/12/29 10:52:34;;;;;;;19.38;8.07;;;;;;;33.00;53.74;100981.59;5013837;28;70512;-44
2021/12/29 10:55:21;;;;;;;11.02;7.72;;;;;;;33.07;52.70;101020.34;5012910;28;66432;-44
2021/12/29 10:58:08;;;;;;;11.77;6.60;;;;;;;33.00;52.30;101025.88;5012278;28;70159;-44
2021/12/29 11:01:08;;;;;;;8.20;6.43;;;;;;;32.69;52.63;100980.75;5012031;28;66130;-43
2021/12/29 11:03:52;;;;;;;8.57;7.13;;;;;;;32.87;52.44;101031.47;5012851;28;69464;-43
2021/12/29 11:06:26;;;;;;;10.63;7.13;;;;;;;32.63;53.26;100993.34;5015695;28;43461;-43
2021/12/29 11:09:02;;;;;;;11.95;8.13;;;;;;;32.61;53.16;101000.06;5014230;28;70031;-43
2021/12/29 11:11:39;;;;;;;11.02;6.97;;;;;;;32.75;53.18;101034.16;5013070;28;65378;-44
2021/12/29 11:14:14;;;;;;;15.30;7.35;;;;;;;32.56;53.26;101005.34;5013431;28;69068;-44
2021/12/29 11:17:05;;;;;;;13.02;7.60;;;;;;;32.68;53.26;101046.97;5011542;28;65968;-45
2021/12/29 11:19:38;;;;;;;10.13;7.88;;;;;;;32.66;53.67;101046.41;5009420;28;68806;-45
2021/12/29 11:22:15;;;;;;;9.02;8.20;;;;;;;32.53;53.25;101039.22;5011059;28;66250;-43
2021/12/29 11:24:54;;;;;;;18.58;9.52;;;;;;;32.57;53.71;101062.16;5013110;28;68850;-44
2021/12/29 11:27:27;;;;;;;12.18;9.13;;;;;;;32.55;53.97;101061.56;5014914;28;66723;-44
2021/12/29 11:30:10;;;;;;;22.23;10.50;;;;;;;32.55;54.02;101066.16;5014554;28;69708;-44
2021/12/29 11:32:46;;;;;;;12.15;9.38;;;;;;;32.40;54.12;101048.34;4992024;28;66140;-44
2021/12/29 11:35:24;;;;;;;18.58;10.18;;;;;;;32.22;54.31;101034.75;5013811;28;69206;-44
2021/12/29 11:37:57;;;;;;;20.75;10.07;;;;;;;32.21;54.26;101039.38;5013998;28;65516;-45
2021/12/29 11:40:33;;;;;;;18.27;10.45;;;;;;;32.23;54.22;101037.28;5001616;28;69467;-44
2021/12/29 11:43:04;;;;;;;21.80;11.25;;;;;;;32.40;54.51;101075.50;5029224;28;65319;-44
2021/12/29 11:45:36;;;;;;;21.77;11.43;;;;;;;32.38;54.49;101076.78;5026132;28;70263;-45
2021/12/29 11:48:10;;;;;;;16.50;12.07;;;;;;;32.36;54.44;101079.72;5013107;28;66486;-44
2021/12/29 11:50:47;;;;;;;15.40;10.85;;;;;;;32.18;54.40;101063.41;5010205;28;70469;-44